createdAt,value
2022-09-26T00:04:36.618Z,13.17
2022-09-26T00:09:37.865Z,17.15
2022-09-26T00:14:39.106Z,14.97
2022-09-26T00:19:40.415Z,11.73
2022-09-26T00:24:41.687Z,12.50
2022-09-26T00:29:42.904Z,10.97
2022-09-26T00:34:44.139Z,10.80
2022-09-26T00:39:45.379Z,9.37
2022-09-26T00:44:50.394Z,9.75
2022-09-26T00:49:54.996Z,8.88
2022-09-26T00:54:58.285Z,10.03
2022-09-26T01:00:02.211Z,13.20
2022-09-26T01:05:05.006Z,8.32
2022-09-26T01:10:06.709Z,8.27
2022-09-26T01:15:09.023Z,11.07
2022-09-26T01:20:39.741Z,10.67
2022-09-26T01:25:47.046Z,11.48
2022-09-26T01:30:52.574Z,9.02
2022-09-26T01:36:14.214Z,10.07
2022-09-26T01:41:34.019Z,14.95
2022-09-26T01:46:37.756Z,14.20
2022-09-26T01:51:49.591Z,17.02
2022-09-26T01:56:51.916Z,20.73
2022-09-26T02:01:55.857Z,21.23
2022-09-26T02:06:59.779Z,21.50
2022-09-26T02:12:02.903Z,21.93
2022-09-26T02:17:16.779Z,17.15
2022-09-26T02:22:18.791Z,16.17
2022-09-26T02:27:20.162Z,14.53
2022-09-26T02:32:29.788Z,16.20
2022-09-26T02:37:32.170Z,13.90
2022-09-26T02:42:36.453Z,12.40
2022-09-26T02:47:57.509Z,10.98
2022-09-26T02:52:58.716Z,17.57
2022-09-26T02:58:06.175Z,11.80
2022-09-26T03:03:20.221Z,14.93
2022-09-26T03:08:25.803Z,11.55
2022-09-26T03:13:27.915Z,13.55
2022-09-26T03:18:32.477Z,13.17
2022-09-26T03:23:34.193Z,12.20
2022-09-26T03:28:37.944Z,14.83
2022-09-26T03:33:40.404Z,14.38
2022-09-26T03:38:41.810Z,13.43
2022-09-26T03:43:45.672Z,13.77
2022-09-26T03:48:46.992Z,12.05
2022-09-26T03:53:48.234Z,12.60
2022-09-26T03:58:49.637Z,10.75
2022-09-26T04:03:51.432Z,12.05
2022-09-26T04:08:53.162Z,10.03
2022-09-26T04:13:54.560Z,15.27
2022-09-26T04:18:57.221Z,11.07
2022-09-26T04:23:58.485Z,11.45
2022-09-26T04:28:59.712Z,9.82
2022-09-26T04:34:00.941Z,9.70
2022-09-26T04:39:02.302Z,11.43
2022-09-26T04:44:03.594Z,11.50
2022-09-26T04:49:05.912Z,9.40
2022-09-26T04:54:08.511Z,10.98
2022-09-26T04:59:09.751Z,9.80
2022-09-26T05:04:12.629Z,12.98
2022-09-26T05:09:13.974Z,8.80
2022-09-26T05:14:15.277Z,16.10
2022-09-26T05:19:16.654Z,14.57
2022-09-26T05:24:36.759Z,12.40
2022-09-26T05:29:38.028Z,11.15
2022-09-26T05:34:39.736Z,18.13
2022-09-26T05:39:59.575Z,11.10
2022-09-26T05:45:03.093Z,11.38
2022-09-26T05:50:09.698Z,11.90
2022-09-26T05:55:11.867Z,13.52
2022-09-26T06:00:14.133Z,11.60
2022-09-26T06:05:15.671Z,10.38
2022-09-26T06:10:16.949Z,12.52
2022-09-26T06:15:18.259Z,8.77
2022-09-26T06:20:19.511Z,11.18
2022-09-26T06:25:20.982Z,12.00
2022-09-26T06:30:23.421Z,11.57
2022-09-26T06:35:25.082Z,11.93
2022-09-26T06:40:26.407Z,11.20
2022-09-26T06:45:27.743Z,8.18
2022-09-26T06:50:28.988Z,11.17
2022-09-26T06:55:30.234Z,9.63
2022-09-26T07:00:35.425Z,10.88
2022-09-26T07:05:36.770Z,10.97
2022-09-26T07:10:38.415Z,10.13
2022-09-26T07:15:40.045Z,10.80
2022-09-26T07:20:42.677Z,9.60
2022-09-26T07:25:47.300Z,15.18
2022-09-26T07:30:48.742Z,11.80
2022-09-26T07:35:50.057Z,12.60
2022-09-26T07:40:54.358Z,9.10
2022-09-26T07:46:14.494Z,10.63
2022-09-26T07:51:16.034Z,9.95
2022-09-26T07:56:17.315Z,9.27
2022-09-26T08:01:20.877Z,21.27
2022-09-26T08:06:22.223Z,7.50
2022-09-26T08:11:24.001Z,22.57
2022-09-26T08:16:25.764Z,16.70
2022-09-26T08:21:27.077Z,9.05
2022-09-26T08:26:28.362Z,11.03
2022-09-26T08:31:29.668Z,10.23
2022-09-26T08:36:32.785Z,9.60
2022-09-26T08:41:37.034Z,12.03
2022-09-26T08:46:52.546Z,8.63
2022-09-26T08:51:55.573Z,15.05
2022-09-26T08:56:58.936Z,10.02
2022-09-26T09:02:02.250Z,13.47
2022-09-26T09:07:23.668Z,21.85
2022-09-26T09:12:45.259Z,7.78
2022-09-26T09:17:58.504Z,13.20
2022-09-26T09:23:06.400Z,8.98
2022-09-26T09:28:10.771Z,9.45
2022-09-26T09:33:12.010Z,9.43
2022-09-26T09:38:18.045Z,5.53
2022-09-26T09:43:26.661Z,5.32
2022-09-26T09:48:28.081Z,6.72
2022-09-26T09:53:32.047Z,25.87
2022-09-26T09:58:33.323Z,17.98
2022-09-26T10:03:49.457Z,22.65
2022-09-26T10:08:50.834Z,14.83
2022-09-26T10:13:56.775Z,15.18
2022-09-26T10:19:04.070Z,21.45
2022-09-26T10:24:05.866Z,9.70
2022-09-26T10:29:21.228Z,10.30
2022-09-26T10:34:27.880Z,12.27
2022-09-26T10:39:48.885Z,7.88
2022-09-26T10:44:50.686Z,5.43
2022-09-26T10:49:56.039Z,7.85
2022-09-26T10:55:00.028Z,5.93
2022-09-26T11:00:01.658Z,16.27
2022-09-26T11:05:23.186Z,13.25
2022-09-26T11:10:25.595Z,6.03
2022-09-26T11:15:28.682Z,6.17
2022-09-26T11:20:52.524Z,14.67
2022-09-26T11:26:02.565Z,9.55
2022-09-26T11:31:10.306Z,7.30
2022-09-26T11:36:18.009Z,6.93
2022-09-26T11:41:38.063Z,6.43
2022-09-26T11:46:47.366Z,7.75
2022-09-26T11:51:49.835Z,5.10
2022-09-26T11:56:51.020Z,5.00
2022-09-26T12:01:55.910Z,5.18
2022-09-26T12:07:02.326Z,5.07
2022-09-26T12:12:24.157Z,5.20
2022-09-26T12:17:52.445Z,5.47
2022-09-26T12:22:53.715Z,7.03
2022-09-26T12:28:08.446Z,6.13
2022-09-26T12:33:21.780Z,15.00
2022-09-26T12:38:42.321Z,8.95
2022-09-26T12:44:07.976Z,10.37
2022-09-26T12:49:28.004Z,6.60
2022-09-26T12:54:41.997Z,9.27
2022-09-26T12:59:52.435Z,10.50
2022-09-26T13:04:56.425Z,8.90
2022-09-26T13:10:04.854Z,7.13
2022-09-26T13:15:24.640Z,7.57
2022-09-26T13:20:33.296Z,9.70
2022-09-26T13:25:35.653Z,6.88
2022-09-26T13:30:39.551Z,4.93
2022-09-26T13:35:43.566Z,5.00
2022-09-26T13:40:44.971Z,5.82
2022-09-26T13:45:55.964Z,5.45
2022-09-26T13:51:06.314Z,4.93
2022-09-26T13:56:27.618Z,7.05
2022-09-26T14:01:29.191Z,5.68
2022-09-26T14:06:30.878Z,5.10
2022-09-26T14:11:45.060Z,5.00
2022-09-26T14:16:51.017Z,5.40
2022-09-26T14:21:58.277Z,4.35
2022-09-26T14:27:11.750Z,4.10
2022-09-26T14:32:16.129Z,4.80
2022-09-26T14:37:20.373Z,5.30
2022-09-26T14:42:23.792Z,15.50
2022-09-26T14:47:26.453Z,25.98
2022-09-26T14:52:27.855Z,5.30
2022-09-26T14:57:31.418Z,4.33
2022-09-26T15:02:39.890Z,13.07
2022-09-26T15:07:43.339Z,4.75
2022-09-26T15:12:48.025Z,10.02
2022-09-26T15:17:52.904Z,11.87
2022-09-26T15:22:57.189Z,4.80
2022-09-26T15:27:59.071Z,3.58
2022-09-26T15:33:04.237Z,4.73
2022-09-26T15:38:10.127Z,8.38
2022-09-26T15:43:20.291Z,11.75
2022-09-26T15:48:24.550Z,10.07
2022-09-26T15:53:25.862Z,10.13
2022-09-26T15:58:39.453Z,4.53
2022-09-26T16:04:00.968Z,9.60
2022-09-26T16:09:08.279Z,9.37
2022-09-26T16:14:16.754Z,8.20
2022-09-26T16:19:28.657Z,6.55
2022-09-26T16:24:34.418Z,6.33
2022-09-26T16:29:35.757Z,7.28
2022-09-26T16:34:37.069Z,6.75
2022-09-26T16:39:38.920Z,7.67
2022-09-26T16:44:41.268Z,8.37
2022-09-26T16:49:46.000Z,4.97
2022-09-26T16:54:48.670Z,6.97
2022-09-26T16:59:50.828Z,5.17
2022-09-26T17:04:54.029Z,6.15
2022-09-26T17:09:55.316Z,5.80
2022-09-26T17:14:56.830Z,11.10
2022-09-26T17:19:59.768Z,10.55
2022-09-26T17:25:01.164Z,8.55
2022-09-26T17:30:03.222Z,6.20
2022-09-26T17:35:12.263Z,11.90
2022-09-26T17:40:17.302Z,6.55
2022-09-26T17:45:19.339Z,6.40
2022-09-26T17:50:25.243Z,9.23
2022-09-26T17:55:27.454Z,9.13
2022-09-26T18:00:31.854Z,6.07
2022-09-26T18:05:35.906Z,10.67
2022-09-26T18:10:39.444Z,5.80
2022-09-26T18:15:41.280Z,11.23
2022-09-26T18:20:43.104Z,6.90
2022-09-26T18:25:47.114Z,5.25
2022-09-26T18:30:51.550Z,6.10
2022-09-26T18:35:55.917Z,5.50
2022-09-26T18:40:58.567Z,5.95
2022-09-26T18:46:00.399Z,10.13
2022-09-26T18:51:01.988Z,6.30
2022-09-26T18:56:25.364Z,6.00
2022-09-26T19:01:29.794Z,6.25
2022-09-26T19:06:38.065Z,7.87
2022-09-26T19:11:39.354Z,7.05
2022-09-26T19:16:41.438Z,6.30
2022-09-26T19:21:46.356Z,5.47
2022-09-26T19:26:55.366Z,6.25
2022-09-26T19:31:56.724Z,6.20
2022-09-26T19:36:58.115Z,7.63
2022-09-26T19:41:59.488Z,5.93
2022-09-26T19:47:01.974Z,5.38
2022-09-26T19:52:03.268Z,9.33
2022-09-26T19:57:09.827Z,6.03
2022-09-26T20:02:17.683Z,6.93
2022-09-26T20:07:19.701Z,8.67
2022-09-26T20:12:20.953Z,7.07
2022-09-26T20:17:26.398Z,9.40
2022-09-26T20:22:27.765Z,7.93
2022-09-26T20:27:29.277Z,8.98
2022-09-26T20:32:30.558Z,6.93
2022-09-26T20:37:35.091Z,7.87
2022-09-26T20:42:37.858Z,6.78
2022-09-26T20:47:40.323Z,6.45
2022-09-26T20:52:42.589Z,7.97
2022-09-26T20:57:44.210Z,6.78
2022-09-26T21:02:46.644Z,8.10
2022-09-26T21:07:48.897Z,9.50
2022-09-26T21:12:50.565Z,7.30
2022-09-26T21:17:52.476Z,6.60
2022-09-26T21:22:54.738Z,5.27
2022-09-26T21:28:01.313Z,5.90
2022-09-26T21:33:02.604Z,6.75
2022-09-26T21:38:04.149Z,5.10
2022-09-26T21:43:11.421Z,5.22
2022-09-26T21:48:13.550Z,5.23
2022-09-26T21:53:24.297Z,4.47
2022-09-26T21:58:31.107Z,4.05
2022-09-26T22:03:32.593Z,4.20
2022-09-26T22:08:33.863Z,3.35
2022-09-26T22:13:35.755Z,4.18
2022-09-26T22:18:38.897Z,2.33
2022-09-26T22:23:40.246Z,2.72
2022-09-26T22:28:41.506Z,3.63
2022-09-26T22:33:42.800Z,7.43
2022-09-26T22:38:45.007Z,2.72
2022-09-26T22:43:46.628Z,3.50
2022-09-26T22:48:47.926Z,3.07
2022-09-26T22:53:49.197Z,4.43
2022-09-26T22:58:54.314Z,4.80
2022-09-26T23:03:57.238Z,3.20
2022-09-26T23:08:58.934Z,3.30
2022-09-26T23:14:00.244Z,4.47
2022-09-26T23:19:01.625Z,4.00
2022-09-26T23:24:05.820Z,4.23
2022-09-26T23:29:07.092Z,3.23
2022-09-26T23:34:08.353Z,4.53
2022-09-26T23:39:09.752Z,2.33
2022-09-26T23:44:11.063Z,2.47
2022-09-26T23:49:12.421Z,3.78
2022-09-26T23:54:14.132Z,3.07
2022-09-26T23:59:15.599Z,2.43
